Time;durP1;ratioP1;P1;durP2;ratioP2;P2;SDS_P1;SDS_P2;PMS_P1;PMS_P2;Temp;Humidity;BMP_temperature;BMP_pressure;BME280_temperature;BME280_humidity;BME280_pressure;Samples;Min_cycle;Max_cycle;Signal;HPM_P1;HPM_P2
2022/08/26 00:00:28;;;;;;;8.80;3.28;;;;;;;;;;5078854;28;20037;-67
2022/08/26 00:02:55;;;;;;;7.43;3.67;;;;;;;;;;5054987;28;20056;-64
2022/08/26 00:05:21;;;;;;;6.47;3.47;;;;;;;;;;5061465;28;20036;-65
2022/08/26 00:07:47;;;;;;;7.22;3.92;;;;;;;;;;5068546;28;20041;-64
2022/08/26 00:10:13;;;;;;;5.45;3.17;;;;;;;;;;5060589;28;20492;-64
2022/08/26 00:12:39;;;;;;;6.88;3.35;;;;;;;;;;5071605;28;20055;-65
2022/08/26 00:15:06;;;;;;;6.05;3.50;;;;;;;;;;5072507;28;20091;-65
2022/08/26 00:17:33;;;;;;;7.43;3.88;;;;;;;;;;5064247;28;20048;-64
2022/08/26 00:19:59;;;;;;;5.65;3.65;;;;;;;;;;5063464;28;20052;-66
2022/08/26 00:22:25;;;;;;;7.45;3.67;;;;;;;;;;5070841;28;20090;-64
2022/08/26 00:24:51;;;;;;;6.35;3.17;;;;;;;;;;5069614;28;20056;-64
2022/08/26 00:27:17;;;;;;;7.00;3.58;;;;;;;;;;5066172;28;20045;-71
2022/08/26 00:29:43;;;;;;;5.93;3.45;;;;;;;;;;5063801;28;20453;-65
2022/08/26 00:32:11;;;;;;;6.20;3.63;;;;;;;;;;5067026;28;20102;-64
2022/08/26 00:34:37;;;;;;;6.63;3.50;;;;;;;;;;5070590;28;20420;-64
2022/08/26 00:37:04;;;;;;;6.25;3.58;;;;;;;;;;5057962;28;20120;-65
2022/08/26 00:39:30;;;;;;;6.95;3.80;;;;;;;;;;5056845;28;20048;-64
2022/08/26 00:41:56;;;;;;;6.13;3.55;;;;;;;;;;5061423;28;20123;-64
2022/08/26 00:44:22;;;;;;;6.90;3.60;;;;;;;;;;5063296;28;20090;-64
2022/08/26 00:46:50;;;;;;;7.55;4.05;;;;;;;;;;5073656;28;20041;-64
2022/08/26 00:49:19;;;;;;;7.05;3.83;;;;;;;;;;5065062;28;20050;-64
2022/08/26 00:51:47;;;;;;;6.28;3.75;;;;;;;;;;5070333;28;20044;-64
2022/08/26 00:54:14;;;;;;;6.22;3.35;;;;;;;;;;5072293;28;20141;-64
2022/08/26 00:56:40;;;;;;;6.55;3.72;;;;;;;;;;5059698;28;20438;-64
2022/08/26 00:59:10;;;;;;;5.32;3.08;;;;;;;;;;5058418;28;20282;-64
2022/08/26 01:01:36;;;;;;;6.30;3.25;;;;;;;;;;5050696;28;20060;-67
2022/08/26 01:04:03;;;;;;;6.57;3.58;;;;;;;;;;5051199;28;20045;-64
2022/08/26 01:06:30;;;;;;;5.70;3.15;;;;;;;;;;5067060;28;20451;-64
2022/08/26 01:08:56;;;;;;;6.38;3.47;;;;;;;;;;5059894;28;20080;-64
2022/08/26 01:11:23;;;;;;;5.20;3.20;;;;;;;;;;5067998;28;20390;-64
2022/08/26 01:13:51;;;;;;;6.35;3.80;;;;;;;;;;5062501;28;20049;-66
2022/08/26 01:16:17;;;;;;;5.93;3.88;;;;;;;;;;5065126;28;20044;-64
2022/08/26 01:18:43;;;;;;;6.88;4.03;;;;;;;;;;5063366;28;20044;-64
2022/08/26 01:21:14;;;;;;;7.25;3.72;;;;;;;;;;5051046;28;20538;-64
2022/08/26 01:23:50;;;;;;;6.78;3.55;;;;;;;;;;5075947;28;20053;-66
2022/08/26 01:26:16;;;;;;;;;;;;;;;;;;5053493;28;20052;-64
2022/08/26 01:28:42;;;;;;;6.30;3.30;;;;;;;;;;5060194;28;19917;-64
2022/08/26 01:31:10;;;;;;;7.00;3.50;;;;;;;;;;5054008;28;20048;-64
2022/08/26 01:33:50;;;;;;;6.10;3.50;;;;;;;;;;5059678;28;20742;-64
2022/08/26 01:36:16;;;;;;;5.88;3.30;;;;;;;;;;5069751;28;20381;-64
2022/08/26 01:38:43;;;;;;;7.03;3.65;;;;;;;;;;5070099;28;20052;-67
2022/08/26 01:41:13;;;;;;;6.53;3.50;;;;;;;;;;5070209;28;20108;-64
2022/08/26 01:43:40;;;;;;;6.82;4.32;;;;;;;;;;5051445;28;20095;-64
2022/08/26 01:46:07;;;;;;;6.93;4.15;;;;;;;;;;5065352;28;20041;-65
2022/08/26 01:48:34;;;;;;;6.43;3.60;;;;;;;;;;5056964;28;20052;-64
2022/08/26 01:51:02;;;;;;;6.95;3.22;;;;;;;;;;5055223;28;20044;-66
2022/08/26 01:53:29;;;;;;;7.05;3.20;;;;;;;;;;5065326;28;20766;-64
2022/08/26 01:55:57;;;;;;;5.38;3.00;;;;;;;;;;5064434;28;20091;-64
2022/08/26 01:58:35;;;;;;;6.22;3.30;;;;;;;;;;5071081;28;20105;-64
2022/08/26 02:01:01;;;;;;;5.65;3.13;;;;;;;;;;5069017;28;20044;-64
2022/08/26 02:03:28;;;;;;;6.25;3.38;;;;;;;;;;5063778;28;20076;-64
2022/08/26 02:06:04;;;;;;;6.88;3.88;;;;;;;;;;5066167;28;20056;-64
2022/08/26 02:08:36;;;;;;;5.65;3.08;;;;;;;;;;5050655;28;20128;-64
2022/08/26 02:11:02;;;;;;;6.40;3.22;;;;;;;;;;5076868;28;20105;-64
2022/08/26 02:13:31;;;;;;;6.93;3.70;;;;;;;;;;5065516;28;20048;-64
2022/08/26 02:15:59;;;;;;;6.25;3.45;;;;;;;;;;5066618;28;20102;-66
2022/08/26 02:18:25;;;;;;;5.70;3.25;;;;;;;;;;5069393;28;20052;-64
2022/08/26 02:20:52;;;;;;;4.63;3.10;;;;;;;;;;5070194;28;20083;-64
2022/08/26 02:23:18;;;;;;;5.68;3.25;;;;;;;;;;5052979;28;20048;-64
2022/08/26 02:26:02;;;;;;;5.13;3.10;;;;;;;;;;5069654;28;20048;-64
2022/08/26 02:28:30;;;;;;;6.43;3.38;;;;;;;;;;5053563;28;20037;-64
2022/08/26 02:30:56;;;;;;;5.88;3.42;;;;;;;;;;5049119;28;20102;-65
2022/08/26 02:33:22;;;;;;;7.10;3.60;;;;;;;;;;5055793;28;20048;-65
2022/08/26 02:35:48;;;;;;;5.80;3.35;;;;;;;;;;5066747;28;20094;-66
2022/08/26 02:38:14;;;;;;;5.68;3.30;;;;;;;;;;5066759;28;20055;-64
2022/08/26 02:40:42;;;;;;;6.35;3.55;;;;;;;;;;5061680;28;20509;-64
2022/08/26 02:43:09;;;;;;;5.55;3.10;;;;;;;;;;5067389;28;20051;-64
2022/08/26 02:45:36;;;;;;;7.25;3.67;;;;;;;;;;5056591;28;20084;-64
2022/08/26 02:48:08;;;;;;;5.97;3.45;;;;;;;;;;5063506;28;20481;-64
2022/08/26 02:50:35;;;;;;;7.03;3.90;;;;;;;;;;5050142;28;20505;-64
2022/08/26 02:53:01;;;;;;;6.63;3.80;;;;;;;;;;5062806;28;20045;-64
2022/08/26 02:55:27;;;;;;;5.65;3.20;;;;;;;;;;5066030;28;20048;-64
2022/08/26 02:57:53;;;;;;;5.38;3.15;;;;;;;;;;5044084;28;20084;-64
2022/08/26 03:00:20;;;;;;;6.18;3.40;;;;;;;;;;5068443;28;20047;-64
2022/08/26 03:02:46;;;;;;;6.70;4.10;;;;;;;;;;5067341;28;20044;-64
2022/08/26 03:05:12;;;;;;;5.90;3.17;;;;;;;;;;5057891;28;20049;-64
2022/08/26 03:07:38;;;;;;;5.85;3.60;;;;;;;;;;5057767;28;20389;-64
2022/08/26 03:10:05;;;;;;;6.05;3.38;;;;;;;;;;5064469;28;20036;-64
2022/08/26 03:12:31;;;;;;;4.68;3.00;;;;;;;;;;5077884;28;20485;-64
2022/08/26 03:14:57;;;;;;;6.78;2.90;;;;;;;;;;5064113;28;20048;-64
2022/08/26 03:17:23;;;;;;;6.15;3.35;;;;;;;;;;5056605;28;20431;-64
2022/08/26 03:19:49;;;;;;;5.00;3.10;;;;;;;;;;5070142;28;20048;-64
2022/08/26 03:22:15;;;;;;;5.72;3.58;;;;;;;;;;5066244;28;20896;-63
2022/08/26 03:24:41;;;;;;;6.25;3.28;;;;;;;;;;5069713;28;20041;-64
2022/08/26 03:27:07;;;;;;;5.80;3.50;;;;;;;;;;5061462;28;20044;-64
2022/08/26 03:32:19;;;;;;;5.68;3.17;;;;;;;;;;5049508;28;20473;-64
2022/08/26 03:34:45;;;;;;;6.95;3.60;;;;;;;;;;5050087;28;20056;-63
2022/08/26 03:37:11;;;;;;;6.70;3.60;;;;;;;;;;5048368;28;20080;-63
2022/08/26 03:39:37;;;;;;;5.90;3.30;;;;;;;;;;5049890;28;20060;-64
2022/08/26 03:42:04;;;;;;;6.13;3.80;;;;;;;;;;5049140;28;20506;-64
2022/08/26 03:44:30;;;;;;;7.10;3.45;;;;;;;;;;5069741;28;20044;-64
2022/08/26 03:46:57;;;;;;;5.55;3.28;;;;;;;;;;5069085;28;20378;-65
2022/08/26 03:49:23;;;;;;;6.28;3.17;;;;;;;;;;5072543;28;20052;-64
2022/08/26 03:51:49;;;;;;;6.47;2.97;;;;;;;;;;5072681;28;20040;-64
2022/08/26 03:54:15;;;;;;;6.38;3.78;;;;;;;;;;5073228;28;20167;-64
2022/08/26 03:56:41;;;;;;;6.13;3.40;;;;;;;;;;5073441;28;20044;-64
2022/08/26 03:59:07;;;;;;;6.85;3.38;;;;;;;;;;5071750;28;20119;-64
2022/08/26 04:01:33;;;;;;;5.65;3.50;;;;;;;;;;5071081;28;20470;-63
2022/08/26 04:04:00;;;;;;;5.50;3.20;;;;;;;;;;5072081;28;20101;-65
2022/08/26 04:06:26;;;;;;;5.15;3.40;;;;;;;;;;5072316;28;20135;-63
2022/08/26 04:08:53;;;;;;;5.60;3.40;;;;;;;;;;5073059;28;20048;-64
2022/08/26 04:11:21;;;;;;;6.60;3.88;;;;;;;;;;5088200;28;20656;-64
2022/08/26 04:13:48;;;;;;;6.18;3.53;;;;;;;;;;5073352;28;20497;-63
2022/08/26 04:16:15;;;;;;;5.90;3.28;;;;;;;;;;5069812;28;20033;-63
2022/08/26 04:18:41;;;;;;;7.18;3.85;;;;;;;;;;5073137;28;20122;-63
2022/08/26 04:21:07;;;;;;;5.68;3.40;;;;;;;;;;5072368;28;20044;-64
2022/08/26 04:23:34;;;;;;;7.20;3.70;;;;;;;;;;5071590;28;20505;-64
2022/08/26 04:26:00;;;;;;;6.90;3.90;;;;;;;;;;5071672;28;20048;-63
2022/08/26 04:28:27;;;;;;;6.35;3.63;;;;;;;;;;5071250;28;20171;-64
2022/08/26 04:30:53;;;;;;;6.53;3.67;;;;;;;;;;5072069;28;20040;-64
2022/08/26 04:33:20;;;;;;;6.28;3.80;;;;;;;;;;5071632;28;20079;-64
2022/08/26 04:35:46;;;;;;;5.82;3.42;;;;;;;;;;5072902;28;20371;-64
2022/08/26 04:38:13;;;;;;;7.07;3.78;;;;;;;;;;5070280;28;20066;-64
2022/08/26 04:40:43;;;;;;;7.05;3.90;;;;;;;;;;5070875;28;20500;-64
2022/08/26 04:43:09;;;;;;;6.75;3.53;;;;;;;;;;5070776;28;20051;-64
2022/08/26 04:45:36;;;;;;;7.63;4.20;;;;;;;;;;5071611;28;20074;-64
2022/08/26 04:48:02;;;;;;;6.70;3.95;;;;;;;;;;5072373;28;20056;-64
2022/08/26 04:50:29;;;;;;;6.40;3.53;;;;;;;;;;5072244;28;20422;-64
2022/08/26 04:52:55;;;;;;;6.50;3.78;;;;;;;;;;5071770;28;20516;-64
2022/08/26 04:55:21;;;;;;;8.57;3.88;;;;;;;;;;5071558;28;20048;-64
2022/08/26 04:57:47;;;;;;;8.23;4.40;;;;;;;;;;5072229;28;20554;-64
2022/08/26 05:00:14;;;;;;;6.68;4.18;;;;;;;;;;5070453;28;20461;-64
2022/08/26 05:02:40;;;;;;;7.25;3.67;;;;;;;;;;5070272;28;20544;-64
2022/08/26 05:05:07;;;;;;;6.63;3.80;;;;;;;;;;5071093;28;20127;-66
2022/08/26 05:07:34;;;;;;;7.20;3.55;;;;;;;;;;5071363;28;20093;-64
2022/08/26 05:10:00;;;;;;;7.50;3.90;;;;;;;;;;5072265;28;20128;-64
2022/08/26 05:12:28;;;;;;;7.57;3.80;;;;;;;;;;5070238;28;20045;-64
2022/08/26 05:14:54;;;;;;;7.65;3.90;;;;;;;;;;5071787;28;20046;-64
2022/08/26 05:17:20;;;;;;;7.63;3.72;;;;;;;;;;5070127;28;20764;-64
2022/08/26 05:19:46;;;;;;;7.30;4.20;;;;;;;;;;5070919;28;20047;-64
2022/08/26 05:22:12;;;;;;;7.32;4.10;;;;;;;;;;5070491;28;20044;-64
2022/08/26 05:24:38;;;;;;;6.55;3.63;;;;;;;;;;5071871;28;20047;-64
2022/08/26 05:27:05;;;;;;;6.53;3.67;;;;;;;;;;5071732;28;20052;-64
2022/08/26 05:29:31;;;;;;;7.13;3.95;;;;;;;;;;5071487;28;20037;-64
2022/08/26 05:31:57;;;;;;;7.20;3.90;;;;;;;;;;5069304;28;20047;-64
2022/08/26 05:34:23;;;;;;;7.05;3.60;;;;;;;;;;5071254;28;20172;-64
2022/08/26 05:36:49;;;;;;;6.78;3.72;;;;;;;;;;5053104;28;20041;-64
2022/08/26 05:39:16;;;;;;;8.05;3.95;;;;;;;;;;5069132;28;20048;-64
2022/08/26 05:41:42;;;;;;;8.02;3.70;;;;;;;;;;5070806;28;20060;-64
2022/08/26 05:44:10;;;;;;;7.47;4.13;;;;;;;;;;5070867;28;20505;-65
2022/08/26 05:46:37;;;;;;;10.90;4.47;;;;;;;;;;5070017;28;20115;-64
2022/08/26 05:49:04;;;;;;;5.68;3.50;;;;;;;;;;5071492;28;20082;-64
2022/08/26 05:51:30;;;;;;;6.45;3.53;;;;;;;;;;5069591;28;20055;-64
2022/08/26 05:53:57;;;;;;;6.45;3.72;;;;;;;;;;5071544;28;20051;-64
2022/08/26 05:56:26;;;;;;;7.00;3.88;;;;;;;;;;5069566;28;20032;-64
2022/08/26 05:58:52;;;;;;;5.72;3.33;;;;;;;;;;5071287;28;20048;-64
2022/08/26 06:01:20;;;;;;;5.82;3.53;;;;;;;;;;5069543;28;20123;-65
2022/08/26 06:03:48;;;;;;;5.97;3.53;;;;;;;;;;5051870;28;20087;-64
2022/08/26 06:06:16;;;;;;;5.70;3.50;;;;;;;;;;5068600;28;20040;-64
2022/08/26 06:08:42;;;;;;;5.35;3.20;;;;;;;;;;5068953;28;20074;-64
2022/08/26 06:11:10;;;;;;;6.07;3.58;;;;;;;;;;5049799;28;20048;-64
2022/08/26 06:13:37;;;;;;;6.65;3.78;;;;;;;;;;5050279;28;20049;-64
2022/08/26 06:16:05;;;;;;;5.07;3.33;;;;;;;;;;5049620;28;20047;-64
2022/08/26 06:18:33;;;;;;;6.25;3.50;;;;;;;;;;5063592;28;20056;-64
2022/08/26 06:21:00;;;;;;;6.22;3.75;;;;;;;;;;5071079;28;20481;-64
2022/08/26 06:26:16;;;;;;;6.93;3.30;;;;;;;;;;5070153;28;20054;-66
2022/08/26 06:28:42;;;;;;;6.53;3.95;;;;;;;;;;5050880;28;20049;-64
2022/08/26 06:31:09;;;;;;;6.60;3.67;;;;;;;;;;5049796;28;20052;-64
2022/08/26 06:33:35;;;;;;;7.38;3.67;;;;;;;;;;5057897;28;20615;-64
2022/08/26 06:36:02;;;;;;;7.63;4.25;;;;;;;;;;5070740;28;20086;-65
2022/08/26 06:38:28;;;;;;;7.63;4.75;;;;;;;;;;5069373;28;20076;-64
2022/08/26 06:40:55;;;;;;;6.43;4.13;;;;;;;;;;5069450;28;20032;-64
2022/08/26 06:43:22;;;;;;;10.18;5.00;;;;;;;;;;5069188;28;20052;-64
2022/08/26 06:45:49;;;;;;;7.35;3.97;;;;;;;;;;5069696;28;20482;-64
2022/08/26 06:48:17;;;;;;;7.28;4.10;;;;;;;;;;5069655;28;20048;-66
2022/08/26 06:50:43;;;;;;;6.95;3.65;;;;;;;;;;5050787;28;20067;-65
2022/08/26 06:53:12;;;;;;;6.60;3.80;;;;;;;;;;5053897;28;20082;-64
2022/08/26 06:55:41;;;;;;;6.43;3.97;;;;;;;;;;5070044;28;20048;-64
2022/08/26 06:58:08;;;;;;;7.38;4.10;;;;;;;;;;5069496;28;20431;-64
2022/08/26 07:00:35;;;;;;;6.25;3.60;;;;;;;;;;5069212;28;20048;-64
2022/08/26 07:03:01;;;;;;;5.43;3.30;;;;;;;;;;5085888;28;20068;-64
2022/08/26 07:05:27;;;;;;;5.50;3.40;;;;;;;;;;5069026;28;20169;-64
2022/08/26 07:07:54;;;;;;;5.70;3.58;;;;;;;;;;5066993;28;20075;-64
2022/08/26 07:10:20;;;;;;;5.82;3.50;;;;;;;;;;5061757;28;20048;-64
2022/08/26 07:12:47;;;;;;;6.93;3.65;;;;;;;;;;5079760;28;20055;-64
2022/08/26 07:15:14;;;;;;;6.03;3.45;;;;;;;;;;5065572;28;20115;-65
2022/08/26 07:17:40;;;;;;;7.47;4.00;;;;;;;;;;5060555;28;20194;-64
2022/08/26 07:20:07;;;;;;;7.32;4.20;;;;;;;;;;5070355;28;20044;-64
2022/08/26 07:22:34;;;;;;;6.05;3.50;;;;;;;;;;5070207;28;20133;-65
2022/08/26 07:25:00;;;;;;;5.60;3.15;;;;;;;;;;5073046;28;20041;-64
2022/08/26 07:27:26;;;;;;;5.25;3.20;;;;;;;;;;5073522;28;20047;-64
2022/08/26 07:29:55;;;;;;;5.82;3.38;;;;;;;;;;5071510;28;20098;-65
2022/08/26 07:32:21;;;;;;;5.40;3.20;;;;;;;;;;5063936;28;20041;-66
2022/08/26 07:34:48;;;;;;;5.40;3.53;;;;;;;;;;5069454;28;20044;-65
2022/08/26 07:37:14;;;;;;;6.72;3.38;;;;;;;;;;5068577;28;20427;-64
2022/08/26 07:39:41;;;;;;;5.68;3.40;;;;;;;;;;5069577;28;20114;-64
2022/08/26 07:42:08;;;;;;;4.93;3.08;;;;;;;;;;5069153;28;20053;-64
2022/08/26 07:44:34;;;;;;;6.68;3.38;;;;;;;;;;5071154;28;20067;-64
2022/08/26 07:47:00;;;;;;;5.80;3.33;;;;;;;;;;5068141;28;20041;-64
2022/08/26 07:49:26;;;;;;;6.93;3.80;;;;;;;;;;5068736;28;20459;-65
2022/08/26 07:51:53;;;;;;;8.75;3.80;;;;;;;;;;5063407;28;20056;-66
2022/08/26 07:54:19;;;;;;;6.57;3.28;;;;;;;;;;5068907;28;20058;-64
2022/08/26 07:56:47;;;;;;;7.93;3.40;;;;;;;;;;5063298;28;20051;-65
2022/08/26 07:59:13;;;;;;;7.47;3.58;;;;;;;;;;5053411;28;20037;-64
2022/08/26 08:01:39;;;;;;;9.80;4.15;;;;;;;;;;5051570;28;20045;-64
2022/08/26 08:04:06;;;;;;;9.50;3.72;;;;;;;;;;5081785;28;20072;-65
2022/08/26 08:06:32;;;;;;;8.15;3.90;;;;;;;;;;5066567;28;20048;-65
2022/08/26 08:08:59;;;;;;;7.50;4.13;;;;;;;;;;5054958;28;20112;-65
2022/08/26 08:11:27;;;;;;;7.82;3.92;;;;;;;;;;5081056;28;20055;-65
2022/08/26 08:13:54;;;;;;;7.95;4.35;;;;;;;;;;5067684;28;20059;-65
2022/08/26 08:16:20;;;;;;;6.35;3.47;;;;;;;;;;5060371;28;20056;-65
2022/08/26 08:18:46;;;;;;;9.05;3.67;;;;;;;;;;5064654;28;22021;-64
2022/08/26 08:21:13;;;;;;;7.88;4.15;;;;;;;;;;5061885;28;20037;-65
2022/08/26 08:23:39;;;;;;;7.60;4.13;;;;;;;;;;5066007;28;20045;-65
2022/08/26 08:26:07;;;;;;;7.72;3.30;;;;;;;;;;5072082;28;20044;-65
2022/08/26 08:28:33;;;;;;;7.88;3.45;;;;;;;;;;5065169;28;20379;-64
2022/08/26 08:31:00;;;;;;;7.13;3.65;;;;;;;;;;5070941;28;20029;-64
2022/08/26 08:33:28;;;;;;;10.10;4.00;;;;;;;;;;5069342;28;20486;-67
2022/08/26 08:35:55;;;;;;;7.38;3.50;;;;;;;;;;5079240;28;20052;-62
2022/08/26 08:38:21;;;;;;;7.30;3.60;;;;;;;;;;5076016;28;20054;-62
2022/08/26 08:40:47;;;;;;;6.22;2.97;;;;;;;;;;5061995;28;20048;-62
2022/08/26 08:43:28;;;;;;;8.70;3.50;;;;;;;;;;5058493;28;20123;-63
2022/08/26 08:46:00;;;;;;;10.23;3.40;;;;;;;;;;5066794;28;20432;-67
2022/08/26 08:48:28;;;;;;;8.63;3.35;;;;;;;;;;5052437;28;20044;-69
2022/08/26 08:51:06;;;;;;;7.00;3.35;;;;;;;;;;5053662;28;20045;-71
2022/08/26 08:53:37;;;;;;;6.35;3.65;;;;;;;;;;5062830;28;20048;-73
2022/08/26 08:56:15;;;;;;;7.50;3.05;;;;;;;;;;5060457;28;20123;-66
2022/08/26 08:58:56;;;;;;;8.63;3.58;;;;;;;;;;5063078;28;20044;-69
2022/08/26 09:01:25;;;;;;;12.25;3.60;;;;;;;;;;5086402;28;20128;-66
2022/08/26 09:04:10;;;;;;;6.75;3.20;;;;;;;;;;5071148;28;20044;-66
2022/08/26 09:06:36;;;;;;;9.68;3.72;;;;;;;;;;5070189;28;20036;-65
2022/08/26 09:09:03;;;;;;;5.22;2.97;;;;;;;;;;5071355;28;20036;-66
2022/08/26 09:11:29;;;;;;;9.70;3.25;;;;;;;;;;5070621;28;20040;-66
2022/08/26 09:13:55;;;;;;;7.20;2.95;;;;;;;;;;5071699;28;20043;-66
2022/08/26 09:16:32;;;;;;;6.90;3.17;;;;;;;;;;5069173;28;20509;-66
2022/08/26 09:19:03;;;;;;;6.32;3.25;;;;;;;;;;5071722;28;20473;-65
2022/08/26 09:21:30;;;;;;;8.23;3.30;;;;;;;;;;5052936;28;20158;-65
2022/08/26 09:23:56;;;;;;;10.02;3.40;;;;;;;;;;5071399;28;20048;-66
2022/08/26 09:26:27;;;;;;;6.97;3.00;;;;;;;;;;5071723;28;20051;-65
2022/08/26 09:28:54;;;;;;;6.40;2.65;;;;;;;;;;5070402;28;20481;-65
2022/08/26 09:31:26;;;;;;;6.47;3.15;;;;;;;;;;5070719;28;20476;-65
2022/08/26 09:34:05;;;;;;;8.95;2.92;;;;;;;;;;5067460;28;20048;-64
2022/08/26 09:36:36;;;;;;;5.05;2.65;;;;;;;;;;5059892;28;20382;-64
2022/08/26 09:39:03;;;;;;;6.53;2.83;;;;;;;;;;5057239;28;20409;-64
2022/08/26 09:41:31;;;;;;;6.28;3.13;;;;;;;;;;5051210;28;20045;-65
2022/08/26 09:44:06;;;;;;;8.10;2.85;;;;;;;;;;5050620;28;20041;-65
2022/08/26 09:46:32;;;;;;;6.40;3.05;;;;;;;;;;5066318;28;20124;-65
2022/08/26 09:49:18;;;;;;;6.22;2.97;;;;;;;;;;5069234;28;20044;-64
2022/08/26 09:51:44;;;;;;;7.27;3.23;;;;;;;;;;5069526;28;20048;-64
2022/08/26 09:54:23;;;;;;;5.32;2.90;;;;;;;;;;5071468;28;20049;-65
2022/08/26 09:56:49;;;;;;;7.30;2.90;;;;;;;;;;5070780;28;20110;-64
2022/08/26 09:59:28;;;;;;;6.07;2.63;;;;;;;;;;5069888;28;20482;-64
2022/08/26 10:01:54;;;;;;;7.07;3.00;;;;;;;;;;5049735;28;20045;-65
2022/08/26 10:04:23;;;;;;;9.57;3.03;;;;;;;;;;5051225;28;20051;-65
2022/08/26 10:07:00;;;;;;;7.65;2.90;;;;;;;;;;5049753;28;20048;-64
2022/08/26 10:09:26;;;;;;;6.10;2.90;;;;;;;;;;5053713;28;20508;-64
2022/08/26 10:11:54;;;;;;;5.28;2.53;;;;;;;;;;5070198;28;20415;-65
2022/08/26 10:14:23;;;;;;;5.22;2.75;;;;;;;;;;5071180;28;20044;-65
2022/08/26 10:16:58;;;;;;;6.38;2.53;;;;;;;;;;5069175;28;20640;-66
2022/08/26 10:19:39;;;;;;;6.43;2.53;;;;;;;;;;5071072;28;20045;-65
2022/08/26 10:22:13;;;;;;;3.35;2.05;;;;;;;;;;5069959;28;20041;-66
2022/08/26 10:24:46;;;;;;;5.53;2.85;;;;;;;;;;5070502;28;20048;-65
2022/08/26 10:27:19;;;;;;;4.75;2.55;;;;;;;;;;5070733;28;20126;-66
2022/08/26 10:29:50;;;;;;;8.90;2.80;;;;;;;;;;5069809;28;20393;-66
2022/08/26 10:32:23;;;;;;;4.72;2.53;;;;;;;;;;5067932;28;20051;-65
2022/08/26 10:34:49;;;;;;;3.83;2.10;;;;;;;;;;5069356;28;20048;-65
2022/08/26 10:37:17;;;;;;;3.63;2.17;;;;;;;;;;5068586;28;20501;-65
2022/08/26 10:39:49;;;;;;;3.97;2.50;;;;;;;;;;5069960;28;20051;-64
2022/08/26 10:42:20;;;;;;;5.18;2.40;;;;;;;;;;5063602;28;20048;-65
2022/08/26 10:44:47;;;;;;;5.03;2.35;;;;;;;;;;5060281;28;20881;-65
2022/08/26 10:47:20;;;;;;;8.65;2.58;;;;;;;;;;5049050;28;20152;-65
2022/08/26 10:49:48;;;;;;;5.38;2.50;;;;;;;;;;5052176;28;20049;-65
2022/08/26 10:52:28;;;;;;;5.22;2.30;;;;;;;;;;5067895;28;20147;-64
2022/08/26 10:55:01;;;;;;;5.20;2.72;;;;;;;;;;5062470;28;20127;-64
2022/08/26 10:57:46;;;;;;;4.90;2.08;;;;;;;;;;5058117;28;20052;-64
2022/08/26 11:03:06;;;;;;;4.90;2.45;;;;;;;;;;5065289;28;20103;-64
2022/08/26 11:05:32;;;;;;;3.13;2.30;;;;;;;;;;5068316;28;20490;-65
2022/08/26 11:08:17;;;;;;;4.45;2.30;;;;;;;;;;5052850;28;20098;-65
2022/08/26 11:10:43;;;;;;;5.47;2.35;;;;;;;;;;5079038;28;20083;-64
2022/08/26 11:13:10;;;;;;;6.75;2.50;;;;;;;;;;5066824;28;20036;-65
2022/08/26 11:15:39;;;;;;;4.15;2.38;;;;;;;;;;5071795;28;20074;-64
2022/08/26 11:18:10;;;;;;;4.90;2.28;;;;;;;;;;5057816;28;20382;-65
2022/08/26 11:20:37;;;;;;;5.00;2.20;;;;;;;;;;5054166;28;20103;-64
2022/08/26 11:23:15;;;;;;;5.13;2.28;;;;;;;;;;5068202;28;20639;-65
2022/08/26 11:26:00;;;;;;;3.65;2.05;;;;;;;;;;5063775;28;20040;-65
2022/08/26 11:28:34;;;;;;;4.55;2.10;;;;;;;;;;5071834;28;20045;-65
2022/08/26 11:31:00;;;;;;;4.65;2.10;;;;;;;;;;5066014;28;20048;-64
2022/08/26 11:33:46;;;;;;;7.32;2.35;;;;;;;;;;5068531;28;20049;-64
2022/08/26 11:36:31;;;;;;;4.22;2.08;;;;;;;;;;5061743;28;20083;-65
2022/08/26 11:38:57;;;;;;;5.40;1.73;;;;;;;;;;5064980;28;20091;-64
2022/08/26 11:41:27;;;;;;;7.50;1.90;;;;;;;;;;5059923;28;20525;-65
2022/08/26 11:43:54;;;;;;;7.75;2.53;;;;;;;;;;5056542;28;20044;-65
2022/08/26 11:46:25;;;;;;;9.02;2.78;;;;;;;;;;5068279;28;20119;-64
2022/08/26 11:48:59;;;;;;;6.00;2.20;;;;;;;;;;5063279;28;20040;-64
2022/08/26 11:51:25;;;;;;;4.60;2.38;;;;;;;;;;5058792;28;20143;-64
2022/08/26 11:54:07;;;;;;;8.15;2.33;;;;;;;;;;5072884;28;20048;-64
2022/08/26 11:56:34;;;;;;;5.50;2.40;;;;;;;;;;5069987;28;20050;-64
2022/08/26 11:59:08;;;;;;;5.68;2.63;;;;;;;;;;5068189;28;20485;-64
2022/08/26 12:01:36;;;;;;;6.57;2.50;;;;;;;;;;5066560;28;20386;-64
2022/08/26 12:04:06;;;;;;;5.70;2.97;;;;;;;;;;5070173;28;20032;-64
2022/08/26 12:06:34;;;;;;;7.28;2.40;;;;;;;;;;5068091;28;20040;-64
2022/08/26 12:09:02;;;;;;;7.20;3.00;;;;;;;;;;5072272;28;20044;-64
2022/08/26 12:11:29;;;;;;;9.48;2.63;;;;;;;;;;5072828;28;20049;-65
2022/08/26 12:13:57;;;;;;;6.05;2.40;;;;;;;;;;5072534;28;20052;-65
2022/08/26 12:16:25;;;;;;;6.13;2.22;;;;;;;;;;5063592;28;20056;-64
2022/08/26 12:18:51;;;;;;;3.70;2.17;;;;;;;;;;5068345;28;20533;-65
2022/08/26 12:21:22;;;;;;;5.82;2.63;;;;;;;;;;5052774;28;20084;-64
2022/08/26 12:23:49;;;;;;;6.28;2.30;;;;;;;;;;5052755;28;20048;-64
2022/08/26 12:26:19;;;;;;;7.30;2.20;;;;;;;;;;5052670;28;20105;-64
2022/08/26 12:29:03;;;;;;;4.03;2.45;;;;;;;;;;5053197;28;20045;-64
2022/08/26 12:31:40;;;;;;;5.45;2.47;;;;;;;;;;5057878;28;20261;-64
2022/08/26 12:34:08;;;;;;;5.95;2.30;;;;;;;;;;5071627;28;20057;-64
2022/08/26 12:36:34;;;;;;;5.60;2.25;;;;;;;;;;5071036;28;20123;-64
2022/08/26 12:39:07;;;;;;;4.43;2.60;;;;;;;;;;5071689;28;20144;-65
2022/08/26 12:41:38;;;;;;;4.30;2.20;;;;;;;;;;5052613;28;20049;-64
2022/08/26 12:44:04;;;;;;;5.05;2.40;;;;;;;;;;5052466;28;20048;-64
2022/08/26 12:46:30;;;;;;;5.03;2.22;;;;;;;;;;5050404;28;20049;-64
2022/08/26 12:49:00;;;;;;;2.65;1.92;;;;;;;;;;5055140;28;20358;-64
2022/08/26 12:51:31;;;;;;;2.92;1.90;;;;;;;;;;5070935;28;20044;-64
2022/08/26 12:53:57;;;;;;;4.47;2.28;;;;;;;;;;5071630;28;20041;-64
2022/08/26 12:56:35;;;;;;;3.90;1.95;;;;;;;;;;5052358;28;20037;-64
2022/08/26 12:59:03;;;;;;;5.38;2.13;;;;;;;;;;5051055;28;20080;-64
2022/08/26 13:01:36;;;;;;;4.93;2.20;;;;;;;;;;5051259;28;20049;-64
2022/08/26 13:04:03;;;;;;;5.13;2.15;;;;;;;;;;5063369;28;20052;-64
2022/08/26 13:06:30;;;;;;;5.38;2.35;;;;;;;;;;5071407;28;20746;-64
2022/08/26 13:09:08;;;;;;;3.63;1.80;;;;;;;;;;5072175;28;20177;-64
2022/08/26 13:11:40;;;;;;;4.45;2.05;;;;;;;;;;5071057;28;20513;-65
2022/08/26 13:14:10;;;;;;;5.97;2.45;;;;;;;;;;5070792;28;20060;-64
2022/08/26 13:16:38;;;;;;;4.45;2.20;;;;;;;;;;5070740;28;20127;-64
2022/08/26 13:19:07;;;;;;;2.50;1.90;;;;;;;;;;5070549;28;20044;-65
2022/08/26 13:21:35;;;;;;;3.08;1.85;;;;;;;;;;5071176;28;20048;-64
2022/08/26 13:24:04;;;;;;;4.43;2.00;;;;;;;;;;5071547;28;20355;-65
2022/08/26 13:26:30;;;;;;;3.90;2.00;;;;;;;;;;5051862;28;20044;-64
2022/08/26 13:28:58;;;;;;;3.15;2.05;;;;;;;;;;5052065;28;20429;-65
2022/08/26 13:31:24;;;;;;;3.67;2.17;;;;;;;;;;5050547;28;20045;-64
2022/08/26 13:33:50;;;;;;;4.55;1.92;;;;;;;;;;5067378;28;20079;-64
2022/08/26 13:36:16;;;;;;;4.00;2.13;;;;;;;;;;5050850;28;20037;-64
2022/08/26 13:38:42;;;;;;;5.13;1.98;;;;;;;;;;5051208;28;20064;-64
2022/08/26 13:41:08;;;;;;;3.95;2.22;;;;;;;;;;5065286;28;20444;-64
2022/08/26 13:43:35;;;;;;;3.75;1.90;;;;;;;;;;5051683;28;20052;-64
2022/08/26 13:46:02;;;;;;;4.95;2.08;;;;;;;;;;5050021;28;20516;-64
2022/08/26 13:48:28;;;;;;;4.30;2.10;;;;;;;;;;5051516;28;20056;-64
2022/08/26 13:50:54;;;;;;;5.38;2.00;;;;;;;;;;5051630;28;20040;-64
2022/08/26 13:53:20;;;;;;;3.60;2.00;;;;;;;;;;5049003;28;20634;-64
2022/08/26 13:55:47;;;;;;;3.72;2.13;;;;;;;;;;5051372;28;20051;-65
2022/08/26 13:58:13;;;;;;;4.72;2.10;;;;;;;;;;5049594;28;20045;-64
2022/08/26 14:00:39;;;;;;;4.78;2.25;;;;;;;;;;5060136;28;20087;-64
2022/08/26 14:03:05;;;;;;;4.03;1.92;;;;;;;;;;5070487;28;20128;-65
2022/08/26 14:05:32;;;;;;;3.47;2.05;;;;;;;;;;5070925;28;20544;-64
2022/08/26 14:07:58;;;;;;;4.75;2.55;;;;;;;;;;5070337;28;20055;-64
2022/08/26 14:10:25;;;;;;;6.03;1.98;;;;;;;;;;5068364;28;20075;-63
2022/08/26 14:12:51;;;;;;;2.72;1.58;;;;;;;;;;5069446;28;20045;-64
2022/08/26 14:15:17;;;;;;;4.05;1.90;;;;;;;;;;5063392;28;20044;-64
2022/08/26 14:17:47;;;;;;;2.55;1.70;;;;;;;;;;5063806;28;20123;-64
2022/08/26 14:20:15;;;;;;;3.45;1.70;;;;;;;;;;5068258;28;20171;-65
2022/08/26 14:22:43;;;;;;;4.20;1.80;;;;;;;;;;5066691;28;20040;-65
2022/08/26 14:25:10;;;;;;;5.75;1.90;;;;;;;;;;5069506;28;20040;-65
2022/08/26 14:27:36;;;;;;;3.95;1.90;;;;;;;;;;5067391;28;20068;-65
2022/08/26 14:30:03;;;;;;;5.82;1.90;;;;;;;;;;5067536;28;20048;-65
2022/08/26 14:32:31;;;;;;;3.08;1.50;;;;;;;;;;5062908;28;20166;-65
2022/08/26 14:34:57;;;;;;;2.78;1.70;;;;;;;;;;5082932;28;20511;-65
2022/08/26 14:37:23;;;;;;;3.00;1.73;;;;;;;;;;5062077;28;20973;-64
2022/08/26 14:39:49;;;;;;;4.10;1.70;;;;;;;;;;5067110;28;20036;-67
2022/08/26 14:42:19;;;;;;;3.83;1.63;;;;;;;;;;5067066;28;20064;-66
2022/08/26 14:44:48;;;;;;;3.40;1.70;;;;;;;;;;5067726;28;20051;-70
2022/08/26 14:47:14;;;;;;;65.93;5.72;;;;;;;;;;5067852;28;20054;-65
2022/08/26 14:49:40;;;;;;;4.15;1.60;;;;;;;;;;5056862;28;20049;-77
2022/08/26 14:52:06;;;;;;;3.17;1.65;;;;;;;;;;5052020;28;20048;-69
2022/08/26 14:54:32;;;;;;;2.97;1.70;;;;;;;;;;5066135;28;20123;-71
2022/08/26 14:57:03;;;;;;;3.55;1.65;;;;;;;;;;5056191;28;20044;-78